»·PEaware :: WJA933 KPDX-KBFI

WJA933 :: KPDX-KBFI

FLIGHT INFORMATION

Flight Status: Arrived
Operator:
Westjet Airlines
More flights by this operator :: More flights under this callsign
Pilot: Ben L. (6391)
Aircraft: BOEING 737-200
(B732)
More flights by this aircraft type
Origin: KPDX Portland Intl
United States
Destination: KBFI Boeing Field/King Co Intl
United States
More flights between these airports :: More routes between these airports
Route: +PTDL1 BTG OLM2
File this flight plan on PilotEdge
Remarks:
Altitude:
(Current/Filed)
17,000ft
Speed:
(Current/Filed)
400kts
Departed: 28-Mar-20 12:48 PM
Arrived: 28-Mar-20 01:24 PM
Distance/Time
Traveled:
117nm/0:36
Distance/Time
To Go:
Arrived

Flight Plot

Page will automatically refresh every two minutes.

Flight plan parsing failed; only flown route is shown


Map Options




Map Legend


Flown Route
Filed Route
Departure Airport
Arrival Airport
Navaid (VOR, NDB)
Fix

Horizontal Profiles

Position Reports

Time Latitude Longitude Heading Altitude Ground
Speed
28-Mar-20 12:04 45.587995 -122.595397 21 38ft 0kts
28-Mar-20 12:05 45.587995 -122.595397 21 38ft 0kts
28-Mar-20 12:06 45.587995 -122.595397 21 38ft 0kts
28-Mar-20 12:07 45.587995 -122.595397 21 38ft 0kts
28-Mar-20 12:08 45.587995 -122.595397 21 38ft 0kts
28-Mar-20 12:09 45.587995 -122.595397 21 38ft 0kts
28-Mar-20 12:10 45.587995 -122.595397 21 38ft 0kts
28-Mar-20 12:11 45.587995 -122.595397 21 38ft 0kts
28-Mar-20 12:12 45.587995 -122.595397 21 38ft 0kts
28-Mar-20 12:13 45.587995 -122.595397 21 38ft 0kts
28-Mar-20 12:14 45.587995 -122.595397 21 38ft 0kts
28-Mar-20 12:15 45.587995 -122.595397 21 38ft 0kts
28-Mar-20 12:16 45.587995 -122.595397 21 38ft 0kts
28-Mar-20 12:17 45.587995 -122.595397 21 38ft 0kts
28-Mar-20 12:18 45.587995 -122.595397 21 38ft 0kts
28-Mar-20 12:19 45.587995 -122.595397 21 38ft 0kts
28-Mar-20 12:20 45.587995 -122.595397 21 38ft 0kts
28-Mar-20 12:21 45.587995 -122.595398 21 38ft 0kts
28-Mar-20 12:22 45.587995 -122.595398 21 38ft 0kts
28-Mar-20 12:23 45.587995 -122.595398 21 38ft 0kts
28-Mar-20 12:24 45.587995 -122.595398 21 38ft 0kts
28-Mar-20 12:25 45.587995 -122.595398 21 38ft 0kts
28-Mar-20 12:26 45.587995 -122.595398 21 38ft 0kts
28-Mar-20 12:27 45.587995 -122.595398 21 38ft 0kts
28-Mar-20 12:28 45.587995 -122.595398 21 38ft 0kts
28-Mar-20 12:29 45.587995 -122.595398 21 38ft 0kts
28-Mar-20 12:30 45.587956 -122.595421 22 38ft 2kts
28-Mar-20 12:31 45.587439 -122.595451 323 38ft 2kts
28-Mar-20 12:32 45.587300 -122.595208 297 38ft 0kts
28-Mar-20 12:33 45.587300 -122.595208 297 38ft 0kts
28-Mar-20 12:34 45.587300 -122.595208 297 38ft 0kts
28-Mar-20 12:35 45.588502 -122.599125 299 38ft 17kts
28-Mar-20 12:36 45.591357 -122.601936 45 38ft 14kts
28-Mar-20 12:37 45.593595 -122.598733 44 38ft 0kts
28-Mar-20 12:38 45.594055 -122.598085 45 38ft 0kts
28-Mar-20 12:39 45.594095 -122.598026 45 38ft 0kts
28-Mar-20 12:40 45.594095 -122.598026 45 38ft 0kts
28-Mar-20 12:41 45.594095 -122.598026 45 38ft 0kts
28-Mar-20 12:42 45.594095 -122.598026 45 38ft 0kts
28-Mar-20 12:43 45.594428 -122.597540 42 38ft 0kts
28-Mar-20 12:44 45.594766 -122.596971 57 38ft 11kts
28-Mar-20 12:45 45.594795 -122.595558 120 38ft 0kts
28-Mar-20 12:46 45.594795 -122.595558 120 38ft 0kts
28-Mar-20 12:47 45.581727 -122.563566 120 353ft 183kts
28-Mar-20 12:48 45.569204 -122.487274 93 2611ft 226kts
28-Mar-20 12:49 45.560658 -122.397652 78 5002ft 255kts
28-Mar-20 12:50 45.616928 -122.347198 348 6908ft 268kts
28-Mar-20 12:51 45.666003 -122.421618 303 8950ft 269kts
28-Mar-20 12:52 45.710534 -122.511832 301 10342ft 293kts
28-Mar-20 12:53 45.757459 -122.610867 309 11715ft 311kts
28-Mar-20 12:54 45.842880 -122.642961 353 13214ft 330kts
28-Mar-20 12:55 45.934420 -122.638623 347 14516ft 331kts
28-Mar-20 12:56 46.018955 -122.661996 346 15636ft 334kts
28-Mar-20 12:57 46.110781 -122.685042 347 16006ft 379kts
28-Mar-20 12:58 46.214866 -122.710236 347 15991ft 393kts
28-Mar-20 12:59 46.322983 -122.737048 347 15991ft 396kts
28-Mar-20 13:00 46.430688 -122.764835 346 15985ft 397kts
28-Mar-20 13:01 46.540110 -122.793821 346 15950ft 399kts
28-Mar-20 13:02 46.649828 -122.822728 350 15942ft 400kts
28-Mar-20 13:03 46.761101 -122.833922 347 15941ft 400kts
28-Mar-20 13:04 46.869194 -122.869271 343 15927ft 399kts
28-Mar-20 13:05 46.978091 -122.894952 8 15921ft 407kts
28-Mar-20 13:06 47.069609 -122.808508 37 14474ft 383kts
28-Mar-20 13:08 47.126815 -122.704618 39 13014ft 333kts
28-Mar-20 13:09 47.193827 -122.619258 40 13026ft 316kts
28-Mar-20 13:10 47.259367 -122.535985 39 11028ft 312kts
28-Mar-20 13:11 47.320366 -122.457937 40 10012ft 271kts
28-Mar-20 13:12 47.382719 -122.427167 358 8852ft 254kts
28-Mar-20 13:13 47.454928 -122.424846 358 7090ft 262kts
28-Mar-20 13:14 47.517971 -122.456070 324 6048ft 235kts
28-Mar-20 13:15 47.577337 -122.507877 324 5650ft 247kts
28-Mar-20 13:16 47.632902 -122.556506 325 4975ft 199kts
28-Mar-20 13:17 47.675359 -122.542302 63 3670ft 187kts
28-Mar-20 13:18 47.676149 -122.474918 115 2283ft 170kts
28-Mar-20 13:19 47.661392 -122.419028 136 1881ft 131kts
28-Mar-20 13:20 47.631584 -122.387467 152 2079ft 126kts
28-Mar-20 13:21 47.601398 -122.362745 153 1390ft 122kts
28-Mar-20 13:21 47.579804 -122.344841 153 951ft 123kts
28-Mar-20 13:23 47.545819 -122.315888 151 184ft 120kts
28-Mar-20 13:24 47.527320 -122.299948 118 27ft 10kts
28-Mar-20 13:25 47.527718 -122.298623 30 27ft 6kts
28-Mar-20 13:26 47.532352 -122.301475 329 27ft 24kts

Navigation Log

Ident Type
Flight plan parsing failed, navigation log unavailable